createdAt,value
2022-09-27T00:01:07.960Z,14.04
2022-09-27T00:03:35.916Z,14.10
2022-09-27T00:06:06.190Z,14.10
2022-09-27T00:08:34.808Z,14.18
2022-09-27T00:11:04.171Z,14.13
2022-09-27T00:13:33.319Z,14.18
2022-09-27T00:16:03.261Z,14.17
2022-09-27T00:26:14.505Z,14.03
2022-09-27T00:28:41.362Z,14.07
2022-09-27T00:31:17.505Z,14.11
2022-09-27T00:33:43.969Z,14.12
2022-09-27T00:36:10.354Z,14.12
2022-09-27T00:38:36.718Z,14.12
2022-09-27T00:41:03.150Z,14.16
2022-09-27T00:47:18.274Z,14.03
2022-09-27T00:49:51.297Z,14.01
2022-09-27T00:52:23.690Z,13.99
2022-09-27T00:54:52.936Z,14.03
2022-09-27T00:57:21.084Z,14.01
2022-09-27T00:59:52.084Z,14.03
2022-09-27T01:02:19.331Z,13.96
2022-09-27T01:12:42.109Z,13.90
2022-09-27T01:15:19.771Z,13.88
2022-09-27T01:17:59.940Z,13.82
2022-09-27T01:21:07.986Z,13.94
2022-09-27T01:23:57.664Z,13.91
2022-09-27T01:26:35.284Z,13.84
2022-09-27T01:29:10.833Z,13.84
2022-09-27T01:39:17.209Z,13.71
2022-09-27T01:41:52.876Z,13.69
2022-09-27T01:44:28.253Z,13.68
2022-09-27T01:46:58.236Z,13.66
2022-09-27T01:49:40.948Z,13.47
2022-09-27T01:52:10.841Z,13.26
2022-09-27T01:54:43.635Z,13.25
2022-09-27T02:04:41.841Z,13.03
2022-09-27T02:07:13.678Z,12.90
2022-09-27T02:09:46.367Z,12.77
2022-09-27T02:12:15.727Z,12.68
2022-09-27T02:14:47.182Z,12.69
2022-09-27T02:17:22.954Z,12.62
2022-09-27T02:19:56.949Z,12.56
2022-09-27T02:25:55.036Z,12.59
2022-09-27T02:28:27.882Z,12.68
2022-09-27T02:30:55.059Z,12.81
2022-09-27T02:33:26.137Z,12.89
2022-09-27T02:35:52.490Z,12.95
2022-09-27T02:38:19.728Z,12.88
2022-09-27T02:40:47.646Z,12.82
2022-09-27T02:43:17.876Z,12.83
2022-09-27T02:51:05.370Z,12.62
2022-09-27T02:53:42.614Z,12.62
2022-09-27T02:56:15.677Z,12.66
2022-09-27T02:58:57.896Z,12.75
2022-09-27T03:01:31.592Z,12.70
2022-09-27T03:04:04.210Z,12.75
2022-09-27T03:06:34.694Z,12.78
2022-09-27T03:09:02.408Z,12.75
2022-09-27T03:11:30.124Z,12.74
2022-09-27T03:14:08.494Z,12.75
2022-09-27T03:16:37.031Z,12.65
2022-09-27T03:19:04.822Z,12.68
2022-09-27T03:21:33.918Z,12.64
2022-09-27T03:24:01.970Z,12.63
2022-09-27T03:26:29.855Z,12.53
2022-09-27T03:28:57.602Z,12.52
2022-09-27T03:31:25.439Z,12.55
2022-09-27T03:33:53.556Z,12.57
2022-09-27T03:36:21.232Z,12.62
2022-09-27T03:38:50.314Z,12.59
2022-09-27T03:41:17.998Z,12.48
2022-09-27T03:43:45.691Z,12.50
2022-09-27T03:46:13.431Z,12.55
2022-09-27T03:48:42.545Z,12.53
2022-09-27T03:51:12.156Z,12.45
2022-09-27T03:53:39.938Z,12.50
2022-09-27T03:56:09.121Z,12.59
2022-09-27T03:58:36.850Z,12.57
2022-09-27T04:01:04.972Z,12.64
2022-09-27T04:03:32.745Z,12.59
2022-09-27T04:06:00.861Z,12.52
2022-09-27T04:08:30.085Z,12.57
2022-09-27T04:18:54.964Z,12.63
2022-09-27T04:21:21.822Z,12.61
2022-09-27T04:23:48.148Z,12.62
2022-09-27T04:26:14.477Z,12.61
2022-09-27T04:28:40.749Z,12.51
2022-09-27T04:31:07.143Z,12.55
2022-09-27T04:33:33.659Z,12.60
2022-09-27T04:42:52.232Z,12.68
2022-09-27T04:45:19.290Z,12.69
2022-09-27T04:47:46.705Z,12.53
2022-09-27T04:50:13.974Z,12.40
2022-09-27T04:52:40.457Z,12.38
2022-09-27T04:55:08.444Z,12.41
2022-09-27T04:57:34.792Z,12.38
2022-09-27T05:00:02.626Z,12.33
2022-09-27T05:07:34.052Z,12.53
2022-09-27T05:10:00.378Z,12.51
2022-09-27T05:12:26.725Z,12.37
2022-09-27T05:14:53.924Z,12.29
2022-09-27T05:17:21.607Z,12.30
2022-09-27T05:19:48.202Z,12.32
2022-09-27T05:22:14.863Z,12.31
2022-09-27T05:24:42.171Z,12.32
2022-09-27T05:32:11.660Z,12.16
2022-09-27T05:34:37.996Z,12.12
2022-09-27T05:37:04.724Z,12.09
2022-09-27T05:39:31.062Z,12.04
2022-09-27T05:41:57.453Z,11.90
2022-09-27T05:44:25.217Z,11.96
2022-09-27T05:46:51.595Z,11.99
2022-09-27T05:49:19.582Z,12.00
2022-09-27T05:56:48.959Z,12.02
2022-09-27T05:59:15.242Z,12.06
2022-09-27T06:01:41.651Z,11.95
2022-09-27T06:04:08.052Z,11.95
2022-09-27T06:06:36.205Z,12.00
2022-09-27T06:09:02.951Z,12.11
2022-09-27T06:11:29.640Z,11.98
2022-09-27T06:13:57.488Z,11.96
2022-09-27T06:23:54.509Z,11.81
2022-09-27T06:26:21.254Z,11.85
2022-09-27T06:28:47.642Z,11.94
2022-09-27T06:31:14.760Z,11.85
2022-09-27T06:33:41.106Z,11.77
2022-09-27T06:36:08.400Z,11.82
2022-09-27T06:38:34.968Z,11.72
2022-09-27T06:48:47.382Z,11.52
2022-09-27T06:51:13.686Z,11.50
2022-09-27T06:53:40.278Z,11.57
2022-09-27T06:56:06.616Z,11.63
2022-09-27T06:58:51.131Z,11.68
2022-09-27T07:01:17.450Z,11.60
2022-09-27T07:03:43.798Z,11.68
2022-09-27T07:06:18.517Z,11.64
2022-09-27T07:13:50.011Z,11.76
2022-09-27T07:16:16.471Z,11.85
2022-09-27T07:18:42.987Z,11.88
2022-09-27T07:21:09.853Z,11.93
2022-09-27T07:23:38.077Z,11.87
2022-09-27T07:26:08.414Z,11.92
2022-09-27T07:28:36.282Z,11.79
2022-09-27T07:31:05.827Z,11.70
2022-09-27T07:33:33.984Z,11.81
2022-09-27T07:36:02.264Z,11.83
2022-09-27T07:38:29.980Z,11.83
2022-09-27T07:40:58.005Z,11.92
2022-09-27T07:43:25.809Z,12.02
2022-09-27T07:45:53.532Z,12.12
2022-09-27T07:48:22.624Z,12.14
2022-09-27T07:50:50.417Z,12.10
2022-09-27T07:53:18.290Z,11.97
2022-09-27T07:55:51.007Z,12.06
2022-09-27T07:58:18.762Z,12.06
2022-09-27T08:00:46.566Z,11.95
2022-09-27T08:03:16.145Z,11.99
2022-09-27T08:05:47.180Z,12.11
2022-09-27T08:08:14.994Z,12.11
2022-09-27T08:10:44.157Z,12.21
2022-09-27T08:13:12.606Z,12.09
2022-09-27T08:15:40.292Z,11.83
2022-09-27T08:18:09.441Z,11.82
2022-09-27T08:20:37.164Z,11.77
2022-09-27T08:23:06.518Z,11.38
2022-09-27T08:25:34.240Z,11.15
2022-09-27T08:28:04.315Z,10.91
2022-09-27T08:30:32.981Z,10.80
2022-09-27T08:33:02.559Z,10.80
2022-09-27T08:35:33.298Z,10.80
2022-09-27T08:38:02.326Z,10.81
2022-09-27T08:40:43.435Z,10.62
2022-09-27T08:43:21.957Z,10.56
2022-09-27T08:46:04.595Z,10.71
2022-09-27T08:48:33.438Z,10.54
2022-09-27T08:51:05.924Z,10.62
2022-09-27T08:53:39.097Z,10.75
2022-09-27T08:56:10.537Z,10.73
2022-09-27T08:58:42.694Z,10.86
2022-09-27T09:01:15.697Z,11.02
2022-09-27T09:03:49.929Z,11.15
2022-09-27T09:06:23.421Z,11.15
2022-09-27T09:09:04.184Z,11.07
2022-09-27T09:12:02.233Z,11.06
2022-09-27T09:14:57.855Z,11.07
2022-09-27T09:17:39.220Z,11.14
2022-09-27T09:20:22.946Z,11.14
2022-09-27T09:23:10.819Z,11.22
2022-09-27T09:25:48.669Z,11.36
2022-09-27T09:28:32.396Z,11.44
2022-09-27T09:31:09.220Z,11.40
2022-09-27T09:33:42.362Z,11.33
2022-09-27T09:36:20.615Z,11.37
2022-09-27T09:38:53.661Z,11.41
2022-09-27T09:41:27.746Z,11.52
2022-09-27T09:44:02.874Z,11.57
2022-09-27T09:46:40.147Z,11.62
2022-09-27T09:49:19.477Z,11.65
2022-09-27T09:51:52.278Z,11.58
2022-09-27T09:54:26.971Z,11.57
2022-09-27T09:57:04.367Z,11.60
2022-09-27T09:59:39.426Z,11.46
2022-09-27T10:02:31.235Z,11.48
2022-09-27T10:05:01.727Z,11.46
2022-09-27T10:07:33.613Z,11.48
2022-09-27T10:10:03.426Z,11.56
2022-09-27T10:12:31.300Z,11.55
2022-09-27T10:15:03.562Z,11.54
2022-09-27T10:17:41.286Z,11.35
2022-09-27T10:20:18.855Z,11.39
2022-09-27T10:22:54.394Z,11.38
2022-09-27T10:25:49.914Z,11.47
2022-09-27T10:28:37.282Z,11.62
2022-09-27T10:31:08.668Z,11.57
2022-09-27T10:33:40.460Z,11.34
2022-09-27T10:36:24.962Z,11.41
2022-09-27T10:38:54.753Z,11.54
2022-09-27T10:41:27.681Z,11.56
2022-09-27T10:43:55.380Z,11.35
2022-09-27T10:46:28.316Z,11.24
2022-09-27T10:49:19.475Z,11.21
2022-09-27T10:51:51.725Z,11.08
2022-09-27T10:54:22.769Z,11.04
2022-09-27T10:56:57.992Z,11.01
2022-09-27T10:59:26.982Z,10.96
2022-09-27T11:02:02.774Z,11.03
2022-09-27T11:04:32.840Z,11.14
2022-09-27T11:07:15.277Z,11.32
2022-09-27T11:09:48.734Z,11.49
2022-09-27T11:12:20.424Z,11.75
2022-09-27T11:15:00.092Z,11.85
2022-09-27T11:20:43.014Z,11.90
2022-09-27T11:23:33.556Z,12.02
2022-09-27T11:26:16.084Z,12.02
2022-09-27T11:28:57.163Z,11.86
2022-09-27T11:32:11.826Z,11.73
2022-09-27T11:35:05.093Z,11.76
2022-09-27T11:37:50.608Z,11.60
2022-09-27T11:40:33.820Z,11.59
2022-09-27T11:43:35.218Z,11.62
2022-09-27T11:46:25.348Z,11.57
2022-09-27T11:49:23.897Z,11.61
2022-09-27T11:52:13.764Z,11.50
2022-09-27T11:54:55.907Z,11.51
2022-09-27T11:57:28.834Z,11.52
2022-09-27T12:00:27.555Z,11.59
2022-09-27T12:03:39.045Z,11.61
2022-09-27T12:06:12.998Z,11.61
2022-09-27T12:09:06.276Z,11.63
2022-09-27T12:11:45.654Z,11.67
2022-09-27T12:14:26.697Z,11.72
2022-09-27T12:16:58.935Z,11.75
2022-09-27T12:19:29.985Z,11.84
2022-09-27T12:22:02.430Z,11.19
2022-09-27T12:24:34.063Z,11.10
2022-09-27T12:27:09.666Z,11.22
2022-09-27T12:29:44.503Z,11.21
2022-09-27T12:32:21.115Z,11.12
2022-09-27T12:34:57.369Z,11.19
2022-09-27T12:37:29.112Z,11.40
2022-09-27T12:40:06.778Z,11.59
2022-09-27T12:45:14.729Z,11.85
2022-09-27T12:48:05.842Z,11.84
2022-09-27T12:50:39.006Z,11.98
2022-09-27T12:53:22.592Z,11.97
2022-09-27T12:56:18.944Z,12.08
2022-09-27T12:59:12.017Z,12.14
2022-09-27T13:01:57.439Z,12.23
2022-09-27T13:04:55.074Z,12.22
2022-09-27T13:07:36.184Z,12.54
2022-09-27T13:10:41.282Z,12.57
2022-09-27T13:13:21.094Z,12.46
2022-09-27T13:15:51.762Z,12.62
2022-09-27T13:18:35.038Z,12.56
2022-09-27T13:21:07.304Z,12.60
2022-09-27T13:24:04.416Z,12.76
2022-09-27T13:26:51.505Z,12.46
2022-09-27T13:29:30.719Z,12.38
2022-09-27T13:32:18.536Z,12.25
2022-09-27T13:34:51.934Z,12.24
2022-09-27T13:38:02.973Z,12.25
2022-09-27T13:40:34.064Z,12.34
2022-09-27T13:43:31.489Z,12.38
2022-09-27T13:46:08.752Z,12.46
2022-09-27T13:48:50.068Z,12.49
2022-09-27T13:51:32.385Z,12.55
2022-09-27T13:54:06.655Z,12.35
2022-09-27T13:56:59.005Z,12.31
2022-09-27T13:59:50.427Z,12.33
2022-09-27T14:02:27.074Z,12.45
2022-09-27T14:04:58.383Z,12.38
2022-09-27T14:07:37.668Z,12.35
2022-09-27T14:13:36.417Z,12.12
2022-09-27T14:16:06.336Z,12.00
2022-09-27T14:18:50.772Z,12.05
2022-09-27T14:22:44.229Z,11.96
2022-09-27T14:25:27.440Z,12.00
2022-09-27T14:28:00.199Z,12.39
2022-09-27T14:36:11.033Z,13.69
2022-09-27T14:43:10.088Z,13.39
2022-09-27T14:45:40.462Z,13.00
2022-09-27T14:48:25.312Z,12.70
2022-09-27T14:51:05.046Z,12.53
2022-09-27T14:53:37.102Z,12.54
2022-09-27T14:56:08.009Z,12.51
2022-09-27T14:58:54.079Z,12.52
2022-09-27T15:01:21.833Z,12.49
2022-09-27T15:03:50.001Z,12.29
2022-09-27T15:06:20.256Z,12.36
2022-09-27T15:08:49.555Z,12.33
2022-09-27T15:11:19.142Z,12.30
2022-09-27T15:13:51.621Z,12.40
2022-09-27T15:16:23.606Z,12.33
2022-09-27T15:19:03.280Z,12.29
2022-09-27T15:21:37.224Z,12.28
2022-09-27T15:24:06.092Z,12.27
2022-09-27T15:26:41.269Z,12.24
2022-09-27T15:29:19.707Z,12.03
2022-09-27T15:31:48.393Z,12.12
2022-09-27T15:34:20.344Z,12.11
2022-09-27T15:36:55.321Z,12.33
2022-09-27T15:39:29.522Z,12.40
2022-09-27T15:42:17.513Z,12.72
2022-09-27T15:44:47.960Z,12.86
2022-09-27T15:47:41.287Z,12.93
2022-09-27T15:50:37.463Z,12.96
2022-09-27T15:53:06.919Z,12.87
2022-09-27T15:55:37.367Z,12.80
2022-09-27T15:58:08.208Z,12.60
2022-09-27T16:03:56.108Z,12.49
2022-09-27T16:06:27.244Z,12.53
2022-09-27T16:08:56.242Z,12.38
2022-09-27T16:11:23.932Z,12.22
2022-09-27T16:15:16.909Z,11.88
2022-09-27T16:18:33.785Z,11.86
2022-09-27T16:21:01.576Z,11.81
2022-09-27T16:23:34.890Z,11.82
2022-09-27T16:26:05.227Z,11.76
2022-09-27T16:28:32.911Z,11.71
2022-09-27T16:31:05.380Z,11.76
2022-09-27T16:33:38.759Z,11.86
2022-09-27T16:36:19.363Z,11.88
2022-09-27T16:38:50.079Z,11.97
2022-09-27T16:41:19.993Z,12.00
2022-09-27T16:43:47.756Z,11.99
2022-09-27T16:46:22.100Z,11.87
2022-09-27T16:48:49.827Z,11.76
2022-09-27T16:51:37.213Z,11.77
2022-09-27T16:54:06.415Z,11.82
2022-09-27T16:56:36.567Z,11.81
2022-09-27T16:59:06.552Z,11.81
2022-09-27T17:01:44.127Z,11.83
2022-09-27T17:04:12.571Z,11.71
2022-09-27T17:06:40.160Z,11.72
2022-09-27T17:09:07.819Z,11.62
2022-09-27T17:11:36.893Z,11.56
2022-09-27T17:14:06.153Z,11.59
2022-09-27T17:16:34.266Z,11.51
2022-09-27T17:19:04.715Z,11.46
2022-09-27T17:21:37.107Z,11.41
2022-09-27T17:24:06.281Z,11.49
2022-09-27T17:26:41.607Z,11.49
2022-09-27T17:29:11.775Z,11.32
2022-09-27T17:31:40.819Z,11.29
2022-09-27T17:34:25.881Z,11.25
2022-09-27T17:37:00.739Z,11.13
2022-09-27T17:39:28.350Z,11.16
2022-09-27T17:41:55.971Z,11.27
2022-09-27T17:44:26.862Z,11.21
2022-09-27T17:47:15.349Z,11.10
2022-09-27T17:50:00.327Z,10.92
2022-09-27T17:52:28.610Z,10.97
2022-09-27T17:54:57.536Z,11.03
2022-09-27T17:57:25.391Z,11.09
2022-09-27T17:59:54.491Z,11.07
2022-09-27T18:02:22.205Z,11.04
2022-09-27T18:04:50.449Z,10.97
2022-09-27T18:07:19.692Z,10.96
2022-09-27T18:09:47.276Z,10.95
2022-09-27T18:12:15.803Z,10.98
2022-09-27T18:14:46.059Z,11.05
2022-09-27T18:17:20.475Z,10.94
2022-09-27T18:19:48.059Z,10.91
2022-09-27T18:22:21.786Z,10.91
2022-09-27T18:24:49.364Z,10.90
2022-09-27T18:27:18.657Z,10.82
2022-09-27T18:29:46.267Z,10.84
2022-09-27T18:32:13.986Z,10.78
2022-09-27T18:34:42.938Z,10.72
2022-09-27T18:37:10.549Z,10.66
2022-09-27T18:39:40.071Z,10.60
2022-09-27T18:42:08.887Z,10.57
2022-09-27T18:44:36.618Z,10.49
2022-09-27T18:47:04.894Z,10.54
2022-09-27T18:49:34.419Z,10.56
2022-09-27T18:52:10.191Z,10.60
2022-09-27T18:54:43.833Z,10.63
2022-09-27T18:57:11.420Z,10.66
2022-09-27T18:59:41.224Z,10.68
2022-09-27T19:02:17.867Z,10.71
2022-09-27T19:04:45.457Z,10.73
2022-09-27T19:07:14.441Z,10.76
2022-09-27T19:09:55.558Z,10.80
2022-09-27T19:12:26.344Z,10.96
2022-09-27T19:14:55.623Z,10.96
2022-09-27T19:17:23.361Z,10.97
2022-09-27T19:19:53.997Z,10.96
2022-09-27T19:22:27.764Z,10.88
2022-09-27T19:24:58.100Z,10.87
2022-09-27T19:27:25.837Z,10.96
2022-09-27T19:30:01.718Z,11.07
2022-09-27T19:32:33.895Z,11.13
2022-09-27T19:35:01.445Z,11.23
2022-09-27T19:37:34.643Z,11.23
2022-09-27T19:40:03.216Z,11.17
2022-09-27T19:42:33.831Z,11.16
2022-09-27T19:45:05.799Z,11.10
2022-09-27T19:47:38.522Z,11.08
2022-09-27T19:50:09.303Z,10.97
2022-09-27T19:56:06.571Z,10.90
2022-09-27T19:58:38.028Z,10.88
2022-09-27T20:01:11.696Z,10.91
2022-09-27T20:03:42.448Z,10.92
2022-09-27T20:06:14.818Z,10.97
2022-09-27T20:08:46.007Z,11.03
2022-09-27T20:11:18.898Z,11.03
2022-09-27T20:13:50.610Z,11.03
2022-09-27T20:16:22.219Z,11.05
2022-09-27T20:18:51.691Z,11.09
2022-09-27T20:21:20.802Z,11.19
2022-09-27T20:23:49.972Z,11.03
2022-09-27T20:26:20.362Z,11.10
2022-09-27T20:28:50.439Z,11.05
2022-09-27T20:31:20.164Z,11.02
2022-09-27T20:34:01.862Z,11.04
2022-09-27T20:36:32.238Z,10.97
2022-09-27T20:39:05.384Z,10.99
2022-09-27T20:41:39.087Z,10.92
2022-09-27T20:44:10.911Z,10.80
2022-09-27T20:46:42.718Z,10.77
2022-09-27T20:49:15.683Z,10.85
2022-09-27T20:51:48.599Z,10.77
2022-09-27T20:54:16.226Z,10.77
2022-09-27T20:56:48.698Z,10.67
2022-09-27T20:59:20.756Z,10.69
2022-09-27T21:01:53.416Z,10.75
2022-09-27T21:04:23.679Z,10.84
2022-09-27T21:06:52.591Z,10.84
2022-09-27T21:09:20.254Z,10.73
2022-09-27T21:11:51.677Z,10.60
2022-09-27T21:14:22.913Z,10.65
2022-09-27T21:16:52.305Z,10.59
2022-09-27T21:19:20.274Z,10.62
2022-09-27T21:21:50.093Z,10.65
2022-09-27T21:24:17.811Z,10.65
2022-09-27T21:26:49.223Z,10.71
2022-09-27T21:29:20.937Z,10.57
2022-09-27T21:31:51.557Z,10.52
2022-09-27T21:34:23.425Z,10.48
2022-09-27T21:36:52.665Z,10.46
2022-09-27T21:39:20.239Z,10.60
2022-09-27T21:41:53.799Z,10.64
2022-09-27T21:44:23.666Z,10.60
2022-09-27T21:46:54.754Z,10.57
2022-09-27T21:49:22.346Z,10.51
2022-09-27T21:51:52.976Z,10.50
2022-09-27T21:54:23.180Z,10.53
2022-09-27T21:56:56.267Z,10.51
2022-09-27T21:59:23.838Z,10.49
2022-09-27T22:01:51.419Z,10.50
2022-09-27T22:04:21.769Z,10.49
2022-09-27T22:06:52.927Z,10.54
2022-09-27T22:09:22.834Z,10.60
2022-09-27T22:11:53.016Z,10.69
2022-09-27T22:14:20.647Z,10.29
2022-09-27T22:16:50.832Z,10.17
2022-09-27T22:19:19.392Z,10.23
2022-09-27T22:21:48.807Z,10.31
2022-09-27T22:24:20.611Z,10.28
2022-09-27T22:26:53.819Z,10.12
2022-09-27T22:29:25.019Z,10.11
2022-09-27T22:31:54.870Z,10.15
2022-09-27T22:34:28.776Z,10.24
2022-09-27T22:37:00.848Z,10.36
2022-09-27T22:39:31.211Z,10.39
2022-09-27T22:41:58.855Z,10.50
2022-09-27T22:44:31.432Z,10.61
2022-09-27T22:47:00.924Z,10.56
2022-09-27T22:49:30.575Z,10.54
2022-09-27T22:51:58.118Z,10.63
2022-09-27T22:54:25.670Z,10.56
2022-09-27T22:56:57.103Z,10.70
2022-09-27T22:59:28.162Z,10.72
2022-09-27T23:01:58.493Z,10.70
2022-09-27T23:04:26.173Z,10.79
2022-09-27T23:06:56.107Z,10.76
2022-09-27T23:09:24.599Z,10.99
2022-09-27T23:11:55.713Z,10.82
2022-09-27T23:14:26.122Z,10.79
2022-09-27T23:16:57.600Z,10.90
2022-09-27T23:19:30.121Z,11.21
2022-09-27T23:21:59.770Z,11.25
2022-09-27T23:24:27.364Z,11.33
2022-09-27T23:27:13.071Z,11.23
2022-09-27T23:29:43.549Z,10.98
2022-09-27T23:32:11.185Z,10.84
2022-09-27T23:34:42.341Z,10.86
2022-09-27T23:37:12.928Z,10.89
2022-09-27T23:39:40.565Z,10.86
2022-09-27T23:42:11.173Z,10.88
2022-09-27T23:44:39.952Z,10.88
2022-09-27T23:47:07.671Z,10.92
2022-09-27T23:49:36.972Z,10.95
2022-09-27T23:52:08.410Z,10.96
2022-09-27T23:54:37.297Z,10.95
2022-09-27T23:57:04.905Z,10.92
2022-09-27T23:59:33.854Z,10.99
